Time;durP1;ratioP1;P1;durP2;ratioP2;P2;SDS_P1;SDS_P2;PMS_P1;PMS_P2;Temp;Humidity;BMP_temperature;BMP_pressure;BME280_temperature;BME280_humidity;BME280_pressure;Samples;Min_cycle;Max_cycle;Signal;HPM_P1;HPM_P2
2022/08/26 00:01:26;;;;;;;10.80;8.05;;;19.70;99.90;;;-144.05;63.72;125687.94;5009943;28;20034;-84
2022/08/26 00:03:52;;;;;;;13.00;8.52;;;19.60;99.90;;;-144.05;64.04;125687.94;5011401;28;20031;-85
2022/08/26 00:06:18;;;;;;;12.48;8.80;;;19.60;99.90;;;-144.05;64.20;125687.94;5003984;28;20022;-84
2022/08/26 00:08:45;;;;;;;14.20;8.63;;;19.60;99.90;;;-144.05;64.39;125687.94;4993649;28;20030;-86
2022/08/26 00:11:12;;;;;;;11.93;8.35;;;19.50;99.90;;;-144.05;64.45;125687.94;4994797;28;20034;-85
2022/08/26 00:13:39;;;;;;;13.60;8.90;;;19.60;99.90;;;-144.05;64.35;125687.94;4993689;28;20026;-87
2022/08/26 00:16:09;;;;;;;8.98;7.70;;;19.60;99.90;;;-144.05;64.25;125687.94;4993655;28;20540;-84
2022/08/26 00:18:37;;;;;;;15.18;9.32;;;19.60;99.90;;;-144.05;64.51;125687.94;4995221;28;20034;-86
2022/08/26 00:21:05;;;;;;;13.27;8.98;;;19.60;99.90;;;-144.05;64.58;125687.94;4994749;28;20022;-86
2022/08/26 00:23:32;;;;;;;10.20;8.43;;;19.60;99.90;;;-144.05;64.78;125687.94;4993277;28;20026;-86
2022/08/26 00:25:59;;;;;;;12.13;8.45;;;19.60;99.90;;;-144.05;65.16;125687.94;4994562;28;20077;-85
2022/08/26 00:28:25;;;;;;;11.10;8.82;;;19.60;99.90;;;-144.05;65.18;125687.94;4993384;28;20092;-86
2022/08/26 00:30:51;;;;;;;9.68;8.65;;;19.60;99.90;;;-144.05;65.26;125687.94;4995078;28;20023;-85
2022/08/26 00:33:19;;;;;;;11.43;8.63;;;19.50;99.90;;;-144.05;65.41;125687.94;4994113;28;20478;-85
2022/08/26 00:35:46;;;;;;;9.35;8.15;;;19.40;99.90;;;-144.05;65.55;125687.94;5009977;28;20037;-85
2022/08/26 00:38:13;;;;;;;10.07;7.97;;;19.40;99.90;;;-144.05;65.75;125687.94;4993295;28;20125;-86
2022/08/26 00:40:52;;;;;;;14.35;9.00;;;19.40;99.90;;;-144.05;66.19;125687.94;4994213;28;20421;-86
2022/08/26 00:43:19;;;;;;;9.70;7.70;;;19.40;99.90;;;-144.05;66.00;125687.94;4995368;28;20392;-85
2022/08/26 00:46:04;;;;;;;12.50;9.05;;;19.40;99.90;;;-144.05;65.97;125687.94;4994859;28;20026;-86
2022/08/26 00:48:36;;;;;;;15.98;9.82;;;19.50;99.90;;;-144.05;65.92;125687.94;4993379;28;20053;-86
2022/08/26 00:51:20;;;;;;;11.52;8.60;;;19.50;99.90;;;-144.05;65.79;125687.94;5012549;28;20030;-84
2022/08/26 00:54:10;;;;;;;10.43;8.27;;;19.70;99.90;;;-144.05;65.47;125687.94;4997825;28;20057;-85
2022/08/26 00:56:58;;;;;;;12.48;8.32;;;19.70;99.90;;;-144.05;65.43;125687.94;4997967;28;20026;-84
2022/08/26 00:59:25;;;;;;;10.68;8.13;;;19.70;99.90;;;-144.05;65.48;125687.94;5003948;28;20037;-84
2022/08/26 01:01:51;;;;;;;11.60;8.38;;;19.60;99.90;;;-144.05;65.69;125687.94;5004187;28;20097;-87
2022/08/26 01:04:22;;;;;;;9.55;8.05;;;19.60;99.90;;;-144.05;66.05;125687.94;5005867;28;20046;-84
2022/08/26 01:06:53;;;;;;;12.27;8.07;;;19.50;99.90;;;-144.05;66.31;125687.94;5008566;28;20038;-84
2022/08/26 01:09:21;;;;;;;12.38;8.43;;;19.40;99.90;;;-144.05;66.97;125687.94;5011336;28;20033;-84
2022/08/26 01:11:56;;;;;;;13.68;9.30;;;19.30;99.90;;;-144.05;67.41;125687.94;5010692;28;20022;-84
2022/08/26 01:14:31;;;;;;;10.02;8.82;;;19.30;99.90;;;-144.05;67.50;125687.94;5009248;28;20097;-86
2022/08/26 01:17:00;;;;;;;13.95;9.13;;;19.20;99.90;;;-144.05;68.57;125687.94;5007563;28;20121;-89
2022/08/26 01:19:44;;;;;;;17.55;10.20;;;19.10;99.90;;;-144.05;69.28;125687.94;5003662;28;20257;-85
2022/08/26 01:23:01;;;;;;;12.10;8.40;;;19.10;99.90;;;-144.05;69.43;125687.94;5005604;28;20037;-87
2022/08/26 01:25:32;;;;;;;14.97;10.47;;;19.10;99.90;;;-144.05;69.15;125687.94;4980871;28;20034;-87
2022/08/26 01:28:07;;;;;;;12.70;9.13;;;19.20;99.90;;;-144.05;68.77;125687.94;4997280;28;20057;-85
2022/08/26 01:30:39;;;;;;;11.43;8.73;;;19.20;99.90;;;-144.05;68.40;125687.94;5004831;28;20034;-84
2022/08/26 01:33:14;;;;;;;13.45;9.27;;;19.20;99.90;;;-144.05;69.06;125687.94;5006944;28;20031;-83
2022/08/26 01:35:41;;;;;;;14.10;9.95;;;19.10;99.90;;;-144.05;69.19;125687.94;5006432;28;20031;-85
2022/08/26 01:38:09;;;;;;;11.02;8.60;;;19.20;99.90;;;-144.05;68.90;125687.94;4993392;28;20034;-85
2022/08/26 01:40:42;;;;;;;12.98;9.15;;;19.10;99.90;;;-144.05;69.32;125687.94;4993352;28;20034;-84
2022/08/26 01:43:18;;;;;;;12.40;9.20;;;19.10;99.90;;;-144.05;69.21;125687.94;4993275;28;20030;-86
2022/08/26 01:45:48;;;;;;;13.82;9.32;;;19.10;99.90;;;-144.05;68.93;125687.94;4995411;28;20409;-86
2022/08/26 01:48:24;;;;;;;15.18;9.93;;;19.10;99.90;;;-144.05;68.64;125687.94;4993008;28;20030;-86
2022/08/26 01:50:52;;;;;;;12.35;9.32;;;19.20;99.90;;;-144.05;68.08;125687.94;4995719;28;20034;-85
2022/08/26 01:53:23;;;;;;;12.50;9.13;;;19.20;99.90;;;-144.05;68.31;125687.94;4996260;28;20042;-87
2022/08/26 01:55:57;;;;;;;12.02;9.48;;;19.20;99.90;;;-144.05;68.77;125687.94;4996499;28;20034;-88
2022/08/26 01:58:35;;;;;;;11.25;9.40;;;19.20;99.90;;;-144.05;68.62;125687.94;4996646;28;20034;-85
2022/08/26 02:01:03;;;;;;;12.07;9.32;;;19.20;99.90;;;-144.05;68.66;125687.94;4996375;28;20026;-84
2022/08/26 02:03:31;;;;;;;15.48;9.82;;;19.20;99.90;;;-144.05;68.57;125687.94;4996921;28;20026;-88
2022/08/26 02:06:06;;;;;;;10.80;8.82;;;19.20;99.90;;;-144.05;68.62;125687.94;4995775;28;20030;-89
2022/08/26 02:08:47;;;;;;;13.38;9.88;;;19.10;99.90;;;-144.05;68.63;125687.94;4996722;28;20121;-85
2022/08/26 02:11:14;;;;;;;13.98;9.88;;;19.00;99.90;;;-144.05;68.47;125687.94;4997274;28;20037;-88
2022/08/26 02:13:53;;;;;;;12.85;9.57;;;19.00;99.90;;;-144.05;68.38;125687.94;4997463;28;20089;-85
2022/08/26 02:16:26;;;;;;;13.75;8.57;;;19.00;99.90;;;-144.05;68.22;125687.94;4998086;28;20030;-89
2022/08/26 02:18:58;;;;;;;12.95;8.93;;;19.00;99.90;;;-144.05;68.25;125687.94;5016353;28;20102;-90
2022/08/26 02:21:24;;;;;;;15.40;10.52;;;19.10;99.90;;;-144.05;68.26;125687.94;4998322;28;20434;-87
2022/08/26 02:23:51;;;;;;;13.65;9.55;;;19.00;99.90;;;-144.05;68.27;125687.94;4995365;28;20027;-86
2022/08/26 02:26:24;;;;;;;15.10;10.70;;;19.00;99.90;;;-144.05;68.32;125687.94;4995007;28;20030;-85
2022/08/26 02:29:08;;;;;;;15.73;10.38;;;19.00;99.90;;;-144.05;68.29;125687.94;4995202;28;20053;-88
2022/08/26 02:31:34;;;;;;;11.13;8.70;;;19.00;99.90;;;-144.05;68.06;125687.94;4995590;28;20382;-87
2022/08/26 02:34:20;;;;;;;15.73;10.25;;;19.00;99.90;;;-144.05;68.37;125687.94;4996900;28;20030;-86
2022/08/26 02:36:48;;;;;;;13.27;10.32;;;19.00;99.90;;;-144.05;68.33;125687.94;4995481;28;20248;-86
2022/08/26 02:39:15;;;;;;;14.50;10.13;;;18.90;99.90;;;-144.05;68.13;125687.94;4996535;28;20034;-87
2022/08/26 02:41:42;;;;;;;14.20;10.40;;;18.90;99.90;;;-144.05;68.50;125687.94;4995960;28;20168;-86
2022/08/26 02:44:08;;;;;;;13.77;9.60;;;18.90;99.90;;;-144.05;68.57;125687.94;4994860;28;20054;-85
2022/08/26 02:46:35;;;;;;;18.35;10.38;;;18.80;99.90;;;-144.05;68.66;125687.94;4996018;28;20481;-86
2022/08/26 02:49:01;;;;;;;14.48;9.60;;;18.70;99.90;;;-144.05;68.66;125687.94;4995505;28;20390;-87
2022/08/26 02:51:27;;;;;;;13.95;10.32;;;18.70;99.90;;;-144.05;69.80;125687.94;4994392;28;20037;-85
2022/08/26 02:53:54;;;;;;;12.88;10.18;;;18.70;99.90;;;-144.05;69.64;125687.94;4994865;28;20445;-87
2022/08/26 02:56:19;;;;;;;15.82;9.90;;;18.60;99.90;;;-144.05;69.25;125687.94;4997636;28;20031;-88
2022/08/26 02:58:46;;;;;;;14.32;9.93;;;18.60;99.90;;;-144.05;69.28;125687.94;5002172;28;20120;-87
2022/08/26 03:01:25;;;;;;;14.02;10.27;;;18.60;99.90;;;-144.05;69.11;125687.94;5001890;28;20062;-86
2022/08/26 03:03:53;;;;;;;13.07;10.10;;;18.70;99.90;;;-144.05;69.05;125687.94;5003589;28;20100;-87
2022/08/26 03:06:20;;;;;;;16.42;11.00;;;18.70;99.90;;;-144.05;68.99;125687.94;5004578;28;20523;-86
2022/08/26 03:08:47;;;;;;;13.10;10.43;;;18.80;99.90;;;-144.05;68.72;125687.94;5002589;28;20058;-86
2022/08/26 03:11:14;;;;;;;14.70;11.25;;;18.80;99.90;;;-144.05;68.60;125687.94;5002832;28;20026;-87
2022/08/26 03:13:41;;;;;;;16.45;11.23;;;18.90;99.90;;;-144.05;68.37;125687.94;5002671;28;20030;-87
2022/08/26 03:16:07;;;;;;;17.40;11.52;;;18.90;99.90;;;-144.05;68.52;125687.94;5002829;28;20034;-87
2022/08/26 03:18:34;;;;;;;16.08;11.10;;;18.90;99.90;;;-144.05;68.30;125687.94;5004382;28;20390;-87
2022/08/26 03:21:16;;;;;;;16.95;11.52;;;19.00;99.90;;;-144.05;68.40;125687.94;5003916;28;20027;-85
2022/08/26 03:23:45;;;;;;;15.80;12.48;;;19.00;99.90;;;-144.05;68.34;125687.94;5000676;28;20026;-85
2022/08/26 03:26:14;;;;;;;21.35;14.27;;;19.00;99.90;;;-144.05;68.47;125687.94;4996979;28;20031;-86
2022/08/26 03:30:38;;;;;;;16.33;12.73;;;19.00;99.90;;;-144.05;68.24;125687.94;4996316;28;20022;-85
2022/08/26 03:31:28;;;;;;;15.68;11.52;;;19.00;99.90;;;-144.05;68.29;125687.94;4997994;28;20022;-84
2022/08/26 03:33:54;;;;;;;12.63;11.05;;;18.90;99.90;;;-144.05;68.53;125687.94;4997111;28;20030;-83
2022/08/26 03:36:21;;;;;;;14.85;11.68;;;18.90;99.90;;;-144.05;68.75;125687.94;4996795;28;20022;-89
2022/08/26 03:38:47;;;;;;;18.05;13.75;;;18.90;99.90;;;-144.05;68.90;125687.94;4998635;28;20058;-87
2022/08/26 03:41:16;;;;;;;19.00;13.32;;;18.90;99.90;;;-144.05;69.14;125687.94;5004697;28;20102;-83
2022/08/26 03:43:43;;;;;;;17.70;13.32;;;18.80;99.90;;;-144.05;69.11;125687.94;4998680;28;20058;-86
2022/08/26 03:46:11;;;;;;;18.35;14.23;;;18.80;99.90;;;-144.05;69.41;125687.94;4995921;28;20026;-87
2022/08/26 03:48:39;;;;;;;22.60;15.80;;;18.80;99.90;;;-144.05;69.73;125687.94;4994512;28;20038;-85
2022/08/26 03:51:17;;;;;;;22.05;16.20;;;18.70;99.90;;;-144.05;70.14;125687.94;4996006;28;20036;-85
2022/08/26 03:53:45;;;;;;;23.15;16.70;;;18.60;99.90;;;-144.05;70.53;125687.94;4994599;28;20484;-84
2022/08/26 03:56:11;;;;;;;28.38;21.13;;;18.60;99.90;;;-144.05;71.28;125687.94;4995185;28;20064;-85
2022/08/26 03:58:38;;;;;;;25.90;19.05;;;18.60;99.90;;;-144.05;71.25;125687.94;4995446;28;20034;-85
2022/08/26 04:01:04;;;;;;;27.75;21.73;;;18.60;99.90;;;-144.05;71.67;125687.94;4995965;28;20030;-87
2022/08/26 04:06:16;;;;;;;38.97;26.15;;;18.50;99.90;;;-144.05;72.62;125687.94;4995277;28;20061;-86
2022/08/26 04:08:43;;;;;;;34.55;24.63;;;18.50;99.90;;;-144.05;73.13;125687.94;4994696;28;20476;-85
2022/08/26 04:11:18;;;;;;;26.02;21.05;;;18.50;99.90;;;-144.05;73.26;125687.94;4994359;28;20034;-84
2022/08/26 04:13:47;;;;;;;41.30;27.95;;;18.40;99.90;;;-144.05;73.72;125687.94;4994676;28;20037;-86
2022/08/26 04:16:16;;;;;;;35.25;26.85;;;18.40;99.90;;;-144.05;74.06;125687.94;4995277;28;20482;-85
2022/08/26 04:18:43;;;;;;;37.25;30.60;;;18.40;99.90;;;-144.05;74.74;125687.94;4994672;28;20121;-84
2022/08/26 04:21:11;;;;;;;38.95;28.50;;;18.40;99.90;;;-144.05;74.70;125687.94;4993957;28;20026;-88
2022/08/26 04:23:38;;;;;;;44.88;31.00;;;18.40;99.90;;;-144.05;75.10;125687.94;4995667;28;20030;-87
2022/08/26 04:26:07;;;;;;;50.13;39.40;;;18.30;99.90;;;-144.05;75.67;125687.94;4994245;28;20050;-85
2022/08/26 04:28:33;;;;;;;47.42;37.75;;;18.30;99.90;;;-144.05;76.18;125687.94;4994407;28;20030;-88
2022/08/26 04:31:01;;;;;;;45.70;34.92;;;18.40;99.90;;;-144.05;76.01;125687.94;4995782;28;20038;-87
2022/08/26 04:33:27;;;;;;;52.70;35.67;;;18.30;99.90;;;-144.05;76.17;125687.94;4994596;28;20041;-89
2022/08/26 04:36:03;;;;;;;50.53;38.25;;;18.30;99.90;;;-144.05;76.64;125687.94;4995585;28;20065;-87
2022/08/26 04:38:31;;;;;;;43.63;33.03;;;18.20;99.90;;;-144.05;76.82;125687.94;4995207;28;20113;-87
2022/08/26 04:40:57;;;;;;;47.35;36.72;;;18.20;99.90;;;-144.05;77.31;125687.94;4995220;28;20038;-87
2022/08/26 04:43:29;;;;;;;47.10;37.63;;;18.20;99.90;;;-144.05;77.58;125687.94;4998679;28;20030;-87
2022/08/26 04:46:03;;;;;;;60.72;42.45;;;18.10;99.90;;;-144.05;78.20;125687.94;5013885;28;20025;-85
2022/08/26 04:48:32;;;;;;;79.30;55.13;;;18.10;99.90;;;-144.05;79.46;125687.94;5015135;28;20011;-84
2022/08/26 04:50:58;;;;;;;61.78;43.00;;;18.10;99.90;;;-144.05;79.12;125687.94;4997282;28;20120;-87
2022/08/26 04:53:26;;;;;;;55.80;41.80;;;18.10;99.90;;;-144.05;79.22;125687.94;4995377;28;20038;-85
2022/08/26 04:55:53;;;;;;;68.03;46.05;;;18.10;99.90;;;-144.05;79.79;125687.94;4995386;28;20470;-86
2022/08/26 04:58:23;;;;;;;57.17;43.28;;;18.10;99.90;;;-144.05;79.79;125687.94;4995506;28;20081;-84
2022/08/26 05:00:53;;;;;;;69.80;50.30;;;18.10;99.90;;;-144.05;80.15;125687.94;4997586;28;20037;-86
2022/08/26 05:03:21;;;;;;;70.97;50.42;;;18.10;99.90;;;-144.05;80.53;125687.94;4995716;28;20037;-86
2022/08/26 05:05:49;;;;;;;71.75;54.08;;;18.20;99.90;;;-144.05;80.90;125687.94;4997593;28;20026;-86
2022/08/26 05:08:19;;;;;;;79.65;57.85;;;18.20;99.90;;;-144.05;81.16;125687.94;4997559;28;20022;-84
2022/08/26 05:10:54;;;;;;;67.57;50.35;;;18.30;99.90;;;-144.05;80.94;125687.94;5010036;28;20039;-88
2022/08/26 05:13:25;;;;;;;71.57;54.33;;;18.30;99.90;;;-144.05;80.94;125687.94;4997603;28;20033;-89
2022/08/26 05:15:52;;;;;;;82.40;58.95;;;18.40;99.90;;;-144.05;81.40;125687.94;5013508;28;20161;-85
2022/08/26 05:18:22;;;;;;;85.82;65.35;;;18.50;99.90;;;-144.05;82.39;125687.94;5012511;28;20030;-87
2022/08/26 05:20:52;;;;;;;89.93;66.68;;;18.60;99.90;;;-144.05;82.22;125687.94;5012796;28;20030;-87
2022/08/26 05:23:21;;;;;;;91.65;68.93;;;18.70;99.90;;;-144.05;82.12;125687.94;5013744;28;20022;-86
2022/08/26 05:25:50;;;;;;;106.30;75.07;;;18.90;99.90;;;-144.05;82.34;125687.94;5015525;28;20444;-89
2022/08/26 05:28:18;;;;;;;98.47;71.32;;;19.00;99.90;;;-144.05;82.08;125687.94;5016541;28;20470;-87
2022/08/26 05:30:45;;;;;;;114.32;80.93;;;19.20;99.90;;;-144.05;82.14;125687.94;5017168;28;20033;-88
2022/08/26 05:33:12;;;;;;;108.65;77.07;;;19.30;99.90;;;-144.05;81.97;125687.94;5018575;28;20122;-91
2022/08/26 05:35:38;;;;;;;116.93;83.40;;;19.30;99.90;;;-144.05;81.88;125687.94;5018366;28;20084;-89
2022/08/26 05:38:11;;;;;;;107.57;74.13;;;19.40;99.90;;;-144.05;81.27;125687.94;5019120;28;20428;-87
2022/08/26 05:40:44;;;;;;;93.82;70.40;;;19.50;99.90;;;-144.05;80.55;125687.94;5019335;28;20026;-91
2022/08/26 05:43:12;;;;;;;105.40;74.10;;;19.50;99.90;;;-144.05;80.12;125687.94;5024389;28;20089;-90
2022/08/26 05:45:47;;;;;;;101.35;65.88;;;19.60;99.90;;;-144.05;79.94;125687.94;5022650;28;20037;-90
2022/08/26 05:48:18;;;;;;;107.55;75.93;;;19.60;99.90;;;-144.05;79.70;125687.94;5034471;28;20022;-87
2022/08/26 05:50:49;;;;;;;102.53;72.25;;;19.70;99.90;;;-144.05;79.48;125687.94;5024492;28;20069;-85
2022/08/26 05:53:20;;;;;;;89.22;62.55;;;19.80;99.90;;;-144.05;78.94;125687.94;5019744;28;20064;-88
2022/08/26 05:55:51;;;;;;;76.72;58.33;;;19.90;99.90;;;-144.05;78.56;125687.94;5020319;28;20068;-88
2022/08/26 05:58:21;;;;;;;92.07;67.47;;;19.90;99.90;;;-144.05;77.76;125687.94;5021307;28;20026;-85
2022/08/26 06:01:13;;;;;;;82.57;56.83;;;20.00;99.90;;;-144.05;77.41;125687.94;5039316;28;20076;-87
2022/08/26 06:03:45;;;;;;;82.45;59.90;;;20.10;99.90;;;-144.05;77.05;125687.94;5039268;28;20033;-87
2022/08/26 06:06:27;;;;;;;82.95;60.92;;;20.10;99.90;;;-144.05;76.74;125687.94;5055605;28;20025;-86
2022/08/26 06:08:56;;;;;;;78.22;58.78;;;20.20;99.90;;;-144.05;76.61;125687.94;5039210;28;20022;-83
2022/08/26 06:11:25;;;;;;;75.88;55.28;;;20.20;99.90;;;-144.05;76.49;125687.94;5036006;28;20030;-83
2022/08/26 06:13:59;;;;;;;73.88;54.22;;;20.30;99.90;;;-144.05;76.33;125687.94;5006401;28;20453;-87
2022/08/26 06:16:26;;;;;;;68.20;52.10;;;20.30;99.90;;;-144.05;75.82;125687.94;5010991;28;20046;-83
2022/08/26 06:18:53;;;;;;;82.45;54.47;;;20.30;99.90;;;-144.05;75.96;125687.94;4999921;28;20085;-84
2022/08/26 06:21:28;;;;;;;73.65;55.72;;;20.30;99.90;;;-144.05;75.75;125687.94;4995836;28;20176;-83
2022/08/26 06:27:00;;;;;;;78.53;56.25;;;20.50;99.90;;;-144.05;75.18;125687.94;4997749;28;20045;-82
2022/08/26 06:29:34;;;;;;;82.40;59.17;;;20.50;99.90;;;-144.05;74.92;125687.94;4996646;28;20030;-84
2022/08/26 06:32:02;;;;;;;87.30;63.13;;;20.60;99.90;;;-144.05;74.88;125687.94;4997453;28;20126;-83
2022/08/26 06:34:29;;;;;;;68.47;49.67;;;20.60;99.90;;;-144.05;74.86;125687.94;4997447;28;20027;-86
2022/08/26 06:37:01;;;;;;;77.35;56.20;;;20.60;99.90;;;-144.05;74.66;125687.94;4995383;28;20030;-86
2022/08/26 06:39:27;;;;;;;86.55;61.38;;;20.70;99.90;;;-144.05;74.06;125687.94;4995753;28;20060;-85
2022/08/26 06:41:54;;;;;;;78.13;56.83;;;20.80;99.90;;;-144.05;73.98;125687.94;4996376;28;20050;-86
2022/08/26 06:44:20;;;;;;;82.43;58.75;;;20.80;99.90;;;-144.05;74.25;125687.94;4997134;28;20034;-84
2022/08/26 06:46:46;;;;;;;87.32;60.53;;;20.80;99.90;;;-144.05;74.35;125687.94;4997172;28;20034;-82
2022/08/26 06:49:12;;;;;;;76.30;53.13;;;20.80;99.90;;;-144.05;74.16;125687.94;4996604;28;20033;-85
2022/08/26 06:51:40;;;;;;;61.58;45.47;;;20.80;99.90;;;-144.05;74.09;125687.94;4996781;28;20394;-84
2022/08/26 06:54:07;;;;;;;72.07;53.85;;;20.90;99.90;;;-144.05;73.88;125687.94;4997058;28;20035;-82
2022/08/26 06:56:42;;;;;;;80.95;55.50;;;20.90;99.90;;;-144.05;73.70;125687.94;4996508;28;20055;-84
2022/08/26 06:59:11;;;;;;;80.43;57.63;;;21.00;99.90;;;-144.05;73.22;125687.94;4996746;28;20038;-83
2022/08/26 07:01:45;;;;;;;71.40;51.47;;;21.00;99.90;;;-144.05;73.18;125687.94;4998399;28;20031;-88
2022/08/26 07:04:15;;;;;;;71.68;52.40;;;21.00;99.90;;;-144.05;73.08;125687.94;4996469;28;20466;-85
2022/08/26 07:06:48;;;;;;;75.93;52.17;;;21.00;99.90;;;-144.05;72.43;125687.94;4995860;28;20030;-82
2022/08/26 07:09:14;;;;;;;72.75;53.85;;;21.00;99.90;;;-144.05;71.86;125687.94;4996082;28;20026;-85
2022/08/26 07:11:40;;;;;;;70.57;52.38;;;21.10;99.90;;;-144.05;71.39;125687.94;4996372;28;20034;-86
2022/08/26 07:14:07;;;;;;;79.72;53.75;;;21.10;99.90;;;-144.05;70.98;125687.94;5006493;28;20030;-82
2022/08/26 07:16:34;;;;;;;75.32;55.00;;;21.10;99.90;;;-144.05;70.58;125687.94;5016277;28;20054;-85
2022/08/26 07:19:00;;;;;;;73.22;52.85;;;21.10;99.90;;;-144.05;70.60;125687.94;5015169;28;20035;-83
2022/08/26 07:21:26;;;;;;;80.40;54.78;;;21.20;99.90;;;-144.05;70.22;125687.94;5015261;28;20085;-87
2022/08/26 07:23:54;;;;;;;80.63;56.00;;;21.20;99.90;;;-144.05;69.70;125687.94;5015297;28;20108;-85
2022/08/26 07:26:27;;;;;;;77.72;56.40;;;21.20;99.90;;;-144.05;69.47;125687.94;5016302;28;20424;-86
2022/08/26 07:28:57;;;;;;;83.20;55.53;;;21.30;99.90;;;-144.05;69.56;125687.94;5016106;28;20068;-84
2022/08/26 07:31:31;;;;;;;74.72;53.38;;;21.30;99.90;;;-144.05;69.41;125687.94;5015458;28;20030;-84
2022/08/26 07:33:58;;;;;;;75.30;51.20;;;21.30;99.90;;;-144.05;69.13;125687.94;5015261;28;20061;-83
2022/08/26 07:36:26;;;;;;;66.03;47.38;;;21.40;99.90;;;-144.05;69.10;125687.94;5016591;28;20469;-83
2022/08/26 07:38:53;;;;;;;73.07;53.25;;;21.50;99.90;;;-144.05;68.50;125687.94;5016590;28;20030;-88
2022/08/26 07:41:24;;;;;;;65.32;46.45;;;21.50;99.90;;;-144.05;68.39;125687.94;5016687;28;20052;-86
2022/08/26 07:43:52;;;;;;;72.78;52.53;;;21.60;99.90;;;-144.05;67.57;125687.94;5016763;28;20030;-87
2022/08/26 07:46:19;;;;;;;57.45;44.10;;;21.60;99.90;;;-144.05;67.93;125687.94;5015123;28;20484;-88
2022/08/26 07:48:50;;;;;;;59.63;43.38;;;21.70;99.90;;;-144.05;68.05;125687.94;5014882;28;20041;-88
2022/08/26 07:51:20;;;;;;;64.70;46.75;;;21.70;99.90;;;-144.05;67.86;125687.94;5015272;28;20026;-86
2022/08/26 07:53:48;;;;;;;68.53;49.80;;;21.70;99.90;;;-144.05;67.00;125687.94;5015968;28;20037;-87
2022/08/26 07:56:15;;;;;;;72.95;52.58;;;21.70;99.90;;;-144.05;67.27;125687.94;5015141;28;20052;-85
2022/08/26 07:58:41;;;;;;;69.40;50.03;;;21.70;99.90;;;-144.05;67.29;125687.94;5021823;28;20536;-88
2022/08/26 08:01:07;;;;;;;55.72;43.88;;;21.60;99.90;;;-144.05;67.31;125687.94;5028118;28;20030;-85
2022/08/26 08:03:34;;;;;;;58.75;46.10;;;21.70;99.90;;;-144.05;67.18;125687.94;5017210;28;20049;-86
2022/08/26 08:05:59;;;;;;;58.38;42.53;;;21.80;99.90;;;-144.05;66.70;125687.94;5014188;28;20026;-85
2022/08/26 08:08:26;;;;;;;66.75;47.45;;;21.90;99.90;;;-144.05;66.33;125687.94;5014032;28;20032;-84
2022/08/26 08:10:52;;;;;;;61.95;45.42;;;21.90;99.90;;;-144.05;65.78;125687.94;5014154;28;20084;-85
2022/08/26 08:13:18;;;;;;;123.78;50.88;;;22.00;99.90;;;-144.05;66.03;125687.94;5013736;28;20408;-87
2022/08/26 08:15:45;;;;;;;63.58;50.42;;;22.10;99.90;;;-144.05;65.45;125687.94;5013608;28;20391;-85
2022/08/26 08:18:11;;;;;;;58.60;46.08;;;22.10;99.90;;;-144.05;65.44;125687.94;5014317;28;20037;-85
2022/08/26 08:20:37;;;;;;;66.13;50.22;;;22.10;99.90;;;-144.05;65.46;125687.94;5013856;28;20367;-83
2022/08/26 08:23:03;;;;;;;67.63;51.95;;;22.10;99.90;;;-144.05;65.24;125687.94;5014320;28;20037;-87
2022/08/26 08:25:33;;;;;;;65.22;50.30;;;22.10;99.90;;;-144.05;65.63;125687.94;5013765;28;20112;-87
2022/08/26 08:27:59;;;;;;;64.97;46.45;;;22.20;99.90;;;-144.05;65.53;125687.94;5015378;28;20064;-88
2022/08/26 08:30:26;;;;;;;43.40;36.70;;;22.20;99.90;;;-144.05;65.51;125687.94;5014713;28;20056;-83
2022/08/26 08:32:53;;;;;;;62.20;47.05;;;22.30;99.90;;;-144.05;65.28;125687.94;5013146;28;20045;-85
2022/08/26 08:35:21;;;;;;;59.10;42.28;;;22.30;99.90;;;-144.05;65.12;125687.94;5013087;28;20026;-84
2022/08/26 08:37:55;;;;;;;60.50;47.40;;;22.40;99.90;;;-144.05;64.39;125687.94;5014648;28;20038;-84
2022/08/26 08:40:26;;;;;;;58.67;43.60;;;22.50;99.90;;;-144.05;64.16;125687.94;5012836;28;20026;-85
2022/08/26 08:43:06;;;;;;;64.30;45.47;;;22.50;99.90;;;-144.05;63.87;125687.94;5016152;28;20033;-85
2022/08/26 08:45:52;;;;;;;53.65;39.70;;;22.60;99.90;;;-144.05;63.69;125687.94;5015278;28;20390;-87
2022/08/26 08:48:34;;;;;;;57.65;45.70;;;22.60;99.90;;;-144.05;63.38;125687.94;5014966;28;20026;-87
2022/08/26 08:51:23;;;;;;;50.85;40.55;;;22.80;99.90;;;-144.05;62.89;125687.94;5015798;28;20056;-88
2022/08/26 08:53:53;;;;;;;56.80;45.17;;;22.80;99.90;;;-144.05;63.21;125687.94;5015799;28;20088;-85
2022/08/26 08:56:34;;;;;;;53.40;40.03;;;22.70;99.90;;;-144.05;63.25;125687.94;5014361;28;20097;-87
2022/08/26 08:59:14;;;;;;;51.47;41.55;;;22.70;99.90;;;-144.05;63.18;125687.94;5014152;28;20550;-87
2022/08/26 09:02:14;;;;;;;57.58;43.00;;;22.80;99.90;;;-144.05;63.22;125687.94;5018669;28;20021;-88
2022/08/26 09:05:13;;;;;;;53.78;41.03;;;22.80;99.90;;;-144.05;62.69;125687.94;5019746;28;20108;-87
2022/08/26 09:07:47;;;;;;;54.08;39.50;;;22.80;99.90;;;-144.05;62.84;125687.94;5017135;28;20486;-88
2022/08/26 09:10:34;;;;;;;47.30;39.00;;;22.80;99.90;;;-144.05;62.73;125687.94;5017525;28;20134;-85
2022/08/26 09:13:07;;;;;;;54.05;41.47;;;22.80;99.90;;;-144.05;62.23;125687.94;5019441;28;20037;-88
2022/08/26 09:16:10;;;;;;;49.78;38.83;;;23.00;99.90;;;-144.05;61.80;125687.94;5018509;28;20030;-85
2022/08/26 09:19:06;;;;;;;51.88;40.63;;;23.20;99.90;;;-144.05;60.44;125687.94;5018667;28;20025;-85
2022/08/26 09:21:33;;;;;;;;;;;23.30;99.90;;;-144.05;60.08;125687.94;5017374;28;20084;-87
2022/08/26 09:23:59;;;;;;;47.80;37.20;;;23.30;99.90;;;-144.05;60.11;125687.94;5017361;28;20012;-86
2022/08/26 09:26:46;;;;;;;42.60;34.15;;;23.50;99.90;;;-144.05;59.71;125687.94;5018820;28;20033;-87
2022/08/26 09:29:28;;;;;;;40.45;34.53;;;23.50;99.90;;;-144.05;59.26;125687.94;5018638;28;20030;-89
2022/08/26 09:32:24;;;;;;;48.97;38.88;;;23.70;99.90;;;-144.05;58.77;125687.94;5016612;28;20052;-85
2022/08/26 09:35:00;;;;;;;51.78;38.42;;;23.80;99.90;;;-144.05;59.67;125687.94;5016974;28;20548;-87
2022/08/26 09:37:46;;;;;;;43.58;36.25;;;23.70;99.90;;;-144.05;59.00;125687.94;5016961;28;20034;-87
2022/08/26 09:40:21;;;;;;;40.53;31.05;;;23.70;99.90;;;-144.05;58.44;125687.94;5018347;28;20040;-84
2022/08/26 09:43:12;;;;;;;39.78;31.55;;;23.70;99.90;;;-144.05;58.70;125687.94;5018369;28;20033;-86
2022/08/26 09:45:44;;;;;;;32.78;27.10;;;23.70;99.90;;;-144.05;58.69;125687.94;5018792;28;20058;-88
2022/08/26 09:48:22;;;;;;;34.22;27.17;;;23.80;99.90;;;-144.05;58.55;125687.94;5024585;28;20026;-85
2022/08/26 09:51:03;;;;;;;34.67;30.92;;;23.90;99.90;;;-144.05;58.04;125687.94;5026653;28;20085;-87
2022/08/26 09:53:48;;;;;;;39.40;32.50;;;23.90;99.90;;;-144.05;58.38;125687.94;5019175;28;20026;-85
2022/08/26 09:56:22;;;;;;;52.85;38.05;;;24.00;99.90;;;-144.05;57.74;125687.94;5019932;28;20030;-87
2022/08/26 09:58:49;;;;;;;43.15;34.20;;;24.10;99.90;;;-144.05;56.99;125687.94;5017828;28;20596;-90
2022/08/26 10:01:45;;;;;;;42.55;35.45;;;24.20;99.90;;;-144.05;56.95;125687.94;5019627;28;20037;-84
2022/08/26 10:04:22;;;;;;;41.97;33.55;;;24.20;99.90;;;-144.05;56.20;125687.94;5019776;28;20030;-87
2022/08/26 10:07:02;;;;;;;36.00;28.30;;;24.40;99.90;;;-144.05;55.82;125687.94;5020752;28;20026;-88
2022/08/26 10:09:43;;;;;;;35.78;29.88;;;24.50;99.90;;;-144.05;55.26;125687.94;5021201;28;20116;-83
2022/08/26 10:12:20;;;;;;;33.28;27.80;;;24.60;99.90;;;-144.05;55.15;125687.94;5046987;28;20040;-85